Flight Track Log - Related Links

Times and Time Zones

All times are in EDT time to prevent confusion due to time zone crossing. See the GJS3710 flight status page for this flight to view local times or setup timezone preferences in your user account.

Time Position Orientation Groundspeed Altitude Reporting Facility
EDT Latitude Longitude Course Direction KTS MPH feet Rate Location/Type
Fri 08:58:55 PM 41.9500 -87.9000 90° East 154 177 1,700  Level Chicago TRACON
Fri 08:59:49 PM 41.9333 -87.8333 109° East 222 255 3,100 1,684 Climbing Chicago TRACON
Fri 09:00:49 PM 41.9500 -87.7333 77° East 268 308 4,900 1,524 Climbing Chicago TRACON
Fri 09:01:55 PM 41.9500 -87.6333 90° East 277 319 6,300 1,857 Climbing Chicago TRACON
Fri 09:02:00 PM 42.1724 -87.3329 66° East  Level FlightAware Approximate
Fri 09:02:55 PM 41.9667 -87.5167 79° East 298 343 8,800  Level Chicago TRACON
Fri 09:03:00 PM 42.2214 -87.1859 66° East  Level FlightAware Approximate
Fri 09:04:00 PM 42.2667 -87.0377 90° East  Level FlightAware Approximate
Fri 09:05:27 PM 42.0872 -87.3028 53° Northeast 306 352 15,100  Level Chicago Center
Fri 09:06:29 PM 42.0986 -87.1689 83° East 354 407 16,300 1,355 Climbing Chicago Center
Fri 09:07:31 PM 42.1100 -87.0247 84° East 383 441 17,900 1,403 Climbing Chicago Center
Fri 09:08:33 PM 42.1228 -86.8742 83° East 404 465 19,200 1,500 Climbing Chicago Center
Fri 09:09:35 PM 42.1344 -86.7189 84° East 415 478 21,000 1,839 Climbing Chicago Center
Fri 09:10:37 PM 42.1475 -86.5381 84° East 420 483 23,000 1,584 Climbing Chicago Center
Fri 09:11:40 PM 42.1600 -86.3772 84° East 429 494 24,300 1,152 Climbing Chicago Center
Fri 09:12:42 PM 42.1722 -86.2108 84° East 443 510 25,400 1,065 Climbing Chicago Center
Fri 09:13:44 PM 42.1844 -86.0406 84° East 453 521 26,500 1,113 Climbing Chicago Center
Fri 09:14:46 PM 42.1978 -85.8472 85° East 462 532 27,700 968 Climbing Chicago Center
Fri 09:15:48 PM 42.2092 -85.6703 85° East 471 542 28,500 774 Climbing Chicago Center
Fri 09:16:50 PM 42.2214 -85.4889 85° East 484 557 29,300 780 Climbing Chicago Center
Fri 09:17:51 PM 42.2356 -85.3028 84° East 498 573 30,100 898 Climbing Chicago Center
Fri 09:18:57 PM 42.2528 -85.0947 84° East 495 570 31,200 1,000 Climbing Cleveland Center
Fri 09:19:57 PM 42.2622 -84.9044 86° East 495 570 32,200 900 Climbing Cleveland Center
Fri 09:20:57 PM 42.2714 -84.7142 86° East 495 570 33,000 400 Climbing Cleveland Center
Fri 09:21:57 PM 42.2800 -84.5267 86° East 495 570 33,000  Level Cleveland Center
Fri 09:22:57 PM 42.3031 -84.3314 81° East 507 583 33,000  Level Cleveland Center
Fri 09:23:57 PM 42.3300 -84.1419 79° East 512 589 33,000  Level Cleveland Center
Fri 09:24:57 PM 42.3589 -83.9469 79° East 519 597 33,000  Level Cleveland Center
Fri 09:25:57 PM 42.3872 -83.7514 79° East 519 597 33,000  Level Cleveland Center
Fri 09:26:57 PM 42.4100 -83.5247 82° East 531 611 33,000  Level Cleveland Center
Fri 09:27:57 PM 42.4169 -83.3253 87° East 534 615 33,000  Level Cleveland Center
Fri 09:28:57 PM 42.4239 -83.1203 87° East 534 615 33,000  Level Cleveland Center
Fri 09:29:57 PM 42.4303 -82.9153 88° East 534 615 33,000  Level Cleveland Center
Fri 09:30:57 PM 42.4364 -82.7128 88° East 534 615 33,000  Level Cleveland Center
Fri 09:31:57 PM 42.4419 -82.5106 88° East 534 615 33,000  Level Cleveland Center
Fri 09:32:57 PM 42.4472 -82.3164 88° East 529 609 33,000  Level Cleveland Center
Fri 09:33:58 PM 42.4539 -82.1336 87° East 529 609 33,000  Level Cleveland Center
Fri 09:34:57 PM 42.4567 -81.9172 89° East 534 615 33,000  Level Cleveland Center
Fri 09:35:57 PM 42.4631 -81.7144 87° East 534 615 33,000  Level Cleveland Center
Fri 09:36:57 PM 42.4689 -81.5206 88° East 534 615 33,000  Level Cleveland Center
Fri 09:37:57 PM 42.4725 -81.3236 89° East 528 608 33,000  Level Cleveland Center
Fri 09:38:57 PM 42.4756 -81.1264 89° East 533 613 33,000  Level Cleveland Center
Fri 09:39:57 PM 42.4783 -80.9294 89° East 527 606 33,000  Level Cleveland Center
Fri 09:40:57 PM 42.4808 -80.7294 89° East 521 600 33,000  Level Cleveland Center
Fri 09:41:57 PM 42.4831 -80.5325 89° East 515 593 33,000  Level Cleveland Center
Fri 09:42:57 PM 42.4850 -80.3581 89° East 515 593 33,000  Level Cleveland Center
Fri 09:43:57 PM 42.4867 -80.1608 89° East 515 593 33,000  Level Cleveland Center
Fri 09:44:57 PM 42.4919 -79.9694 88° East 515 593 33,000  Level Cleveland Center
Fri 09:45:57 PM 42.4908 -79.7694 90° East 515 593 33,000  Level Cleveland Center
Fri 09:46:57 PM 42.4892 -79.5753 91° East 515 593 33,000  Level Cleveland Center
Fri 09:47:57 PM 42.4914 -79.3781 89° East 523 602 33,000  Level Cleveland Center
Fri 09:48:57 PM 42.4997 -79.1836 87° East 525 604 33,000  Level Cleveland Center
Fri 09:49:57 PM 42.5139 -78.9833 84° East 519 597 33,000  Level Cleveland Center
Fri 09:50:57 PM 42.5256 -78.7858 85° East 524 603 33,000  Level Cleveland Center
Fri 09:51:57 PM 42.5389 -78.5881 85° East 524 603 33,000 -100 Level Cleveland Center
Fri 09:52:57 PM 42.5519 -78.3903 85° East 524 603 32,800 -600 Descending Cleveland Center
Fri 09:53:57 PM 42.5647 -78.1981 85° East 517 595 31,800 -1,000 Descending Cleveland Center
Fri 09:54:57 PM 42.5753 -78.0117 86° East 511 588 30,800 -1,100 Descending Cleveland Center
Fri 09:55:57 PM 42.5853 -77.8111 86° East 492 566 29,600 -617 Descending Cleveland Center
Fri 09:57:52 PM 42.6056 -77.4792 85° East 487 560 29,000 -206 Descending Boston Center
Fri 09:58:52 PM 42.6153 -77.2994 86° East 477 549 29,000  Level Boston Center
Fri 09:59:52 PM 42.6250 -77.1167 86° East 477 549 29,000  Level Boston Center
Fri 10:00:52 PM 42.6344 -76.9367 86° East 477 549 29,000  Level Boston Center
Fri 10:01:52 PM 42.6436 -76.7536 86° East 477 549 29,000  Level Boston Center
Fri 10:02:52 PM 42.6506 -76.5706 87° East 477 549 29,000 50 Level Boston Center
Fri 10:03:52 PM 42.6592 -76.3847 86° East 477 549 29,100 -50 Climbing Boston Center
Fri 10:04:52 PM 42.6694 -76.2047 85° East 477 549 28,900 -500 Descending Boston Center
Fri 10:05:52 PM 42.6775 -76.0214 87° East 477 549 28,100 -1,400 Descending Boston Center
Fri 10:06:52 PM 42.6850 -75.8411 87° East 477 549 26,100 -2,100 Descending Boston Center
Fri 10:07:52 PM 42.6925 -75.6578 87° East 477 549 23,900 -2,200 Descending Boston Center
Fri 10:08:52 PM 42.6994 -75.4800 87° East 471 542 21,700 -2,200 Descending Boston Center
Fri 10:09:52 PM 42.7039 -75.3108 88° East 459 528 19,500 -1,950 Descending Boston Center
Fri 10:10:52 PM 42.7100 -75.1444 87° East 454 522 17,800 -1,950 Descending Boston Center
Fri 10:11:52 PM 42.7158 -74.9833 87° East 432 497 15,600 -2,333 Descending Boston Center
Fri 10:12:40 PM 42.7208 -74.8508 87° East 395 455 13,600 -1,654 Descending Boston Center
Fri 10:13:59 PM 42.7247 -74.6558 88° East 394 453 12,100 -1,045 Descending Boston Center
Fri 10:14:52 PM 42.7292 -74.5344 87° East 388 447 11,300 -903 Descending Boston Center
Fri 10:15:52 PM 42.7169 -74.3956 97° East 350 403 10,400 -1,150 Descending Boston Center
Fri 10:16:52 PM 42.6917 -74.3017 110° East 308 354 9,000 -1,600 Descending Boston Center
Fri 10:17:52 PM 42.6619 -74.1906 110° East 285 328 7,200 -1,650 Descending Boston Center
Fri 10:18:52 PM 42.6383 -74.1053 111° Southeast 271 312 5,700 -1,424 Descending Boston Center
Fri 10:19:50 PM 42.6125 -74.0058 109° East 251 289 4,400 -1,311 Descending Boston Center
Fri 10:20:51 PM 42.6181 -73.9128 85° East 250 288 3,100 -1,082 Descending Boston Center
Fri 10:21:52 PM 42.6356 -73.8342 73° East 203 234 2,200 -694 Descending Boston Center
Fri 10:22:52 PM 42.6672 -73.8039 35° Northeast 137 158 1,700 -545 Descending Boston Center
Fri 10:23:53 PM 42.7028 -73.8075 356° North 116 133 1,100 -590 Descending Boston Center

Login

Don't have an account? Register now (free) for customized features, flight alerts, and more!